createdAt,value
2019-01-29T00:00:52.059Z,50.08
2019-01-29T00:03:21.326Z,49.91
2019-01-29T00:05:48.234Z,49.91
2019-01-29T00:08:16.733Z,50.29
2019-01-29T00:10:43.631Z,50.15
2019-01-29T00:13:10.701Z,49.91
2019-01-29T00:15:37.715Z,50.42
2019-01-29T00:18:04.590Z,50.11
2019-01-29T00:20:31.480Z,50.18
2019-01-29T00:22:58.539Z,50.08
2019-01-29T00:25:25.670Z,50.29
2019-01-29T00:27:52.702Z,50.36
2019-01-29T00:30:19.643Z,50.30
2019-01-29T00:32:46.621Z,50.08
2019-01-29T00:35:13.596Z,49.83
2019-01-29T00:37:40.571Z,50.12
2019-01-29T00:40:07.539Z,49.60
2019-01-29T00:42:34.859Z,48.52
2019-01-29T00:45:02.173Z,47.90
2019-01-29T00:47:30.237Z,48.20
2019-01-29T00:49:57.149Z,47.14
2019-01-29T00:52:25.453Z,47.85
2019-01-29T00:54:52.449Z,47.76
2019-01-29T00:57:19.827Z,47.64
2019-01-29T00:59:47.063Z,48.60
2019-01-29T01:02:14.432Z,48.03
2019-01-29T01:04:41.527Z,46.69
2019-01-29T01:07:08.786Z,46.11
2019-01-29T01:09:35.734Z,46.68
2019-01-29T01:12:02.922Z,46.70
2019-01-29T01:14:29.880Z,46.68
2019-01-29T01:16:56.812Z,47.38
2019-01-29T01:19:23.740Z,46.94
2019-01-29T01:21:50.914Z,46.93
2019-01-29T01:24:17.794Z,47.33
2019-01-29T01:26:45.085Z,47.01
2019-01-29T01:29:13.704Z,46.71
2019-01-29T01:31:40.915Z,47.55
2019-01-29T01:34:07.845Z,47.80
2019-01-29T01:36:34.741Z,47.86
2019-01-29T01:39:01.942Z,48.33
2019-01-29T01:41:30.977Z,48.46
2019-01-29T01:44:00.953Z,47.82
2019-01-29T01:46:27.926Z,47.81
2019-01-29T01:48:54.896Z,47.74
2019-01-29T01:51:21.852Z,47.49
2019-01-29T01:53:48.777Z,48.03
2019-01-29T01:56:15.778Z,48.76
2019-01-29T01:58:43.036Z,50.51
2019-01-29T02:01:10.009Z,51.15
2019-01-29T02:03:38.093Z,50.70
2019-01-29T02:06:05.242Z,50.53
2019-01-29T02:08:32.449Z,49.84
2019-01-29T02:10:59.410Z,48.70
2019-01-29T02:13:26.677Z,48.42
2019-01-29T02:15:53.656Z,47.59
2019-01-29T02:18:20.574Z,48.04
2019-01-29T02:20:47.621Z,47.65
2019-01-29T02:23:14.595Z,47.97
2019-01-29T02:25:41.469Z,47.18
2019-01-29T02:28:08.383Z,47.20
2019-01-29T02:30:35.361Z,47.51
2019-01-29T02:33:03.879Z,46.72
2019-01-29T02:35:31.102Z,46.33
2019-01-29T02:37:58.109Z,46.43
2019-01-29T02:40:25.109Z,45.82
2019-01-29T02:42:52.099Z,46.56
2019-01-29T02:45:19.090Z,47.17
2019-01-29T02:47:46.056Z,47.04
2019-01-29T02:50:13.104Z,46.09
2019-01-29T02:52:40.352Z,46.06
2019-01-29T02:55:07.348Z,46.32
2019-01-29T02:57:34.550Z,46.11
2019-01-29T03:00:02.831Z,46.40
2019-01-29T03:02:29.989Z,46.35
2019-01-29T03:04:56.991Z,45.61
2019-01-29T03:07:24.389Z,46.08
2019-01-29T03:09:51.330Z,46.58
2019-01-29T03:12:18.325Z,46.63
2019-01-29T03:14:45.220Z,47.13
2019-01-29T03:17:12.111Z,46.94
2019-01-29T03:19:39.085Z,47.23
2019-01-29T03:22:06.111Z,47.77
2019-01-29T03:24:33.431Z,48.13
2019-01-29T03:27:00.366Z,47.08
2019-01-29T03:29:27.309Z,46.75
2019-01-29T03:31:54.194Z,46.49
2019-01-29T03:34:21.484Z,46.36
2019-01-29T03:36:48.699Z,46.54
2019-01-29T03:39:15.597Z,46.63
2019-01-29T03:41:42.549Z,45.93
2019-01-29T03:44:09.799Z,47.14
2019-01-29T03:46:36.718Z,46.48
2019-01-29T03:49:03.717Z,46.70
2019-01-29T03:51:30.985Z,47.34
2019-01-29T03:53:57.933Z,46.95
2019-01-29T03:56:24.953Z,46.66
2019-01-29T03:58:51.931Z,47.32
2019-01-29T04:01:18.983Z,47.41
2019-01-29T04:03:46.303Z,47.29
2019-01-29T04:06:13.633Z,47.44
2019-01-29T04:08:40.615Z,47.64
2019-01-29T04:11:07.641Z,47.13
2019-01-29T04:13:34.609Z,47.07
2019-01-29T04:16:01.959Z,47.15
2019-01-29T04:18:29.181Z,46.91
2019-01-29T04:20:56.177Z,47.09
2019-01-29T04:23:25.828Z,47.70
2019-01-29T04:25:53.085Z,47.77
2019-01-29T04:28:20.337Z,47.63
2019-01-29T04:30:47.317Z,47.18
2019-01-29T04:33:14.562Z,47.69
2019-01-29T04:35:44.725Z,47.75
2019-01-29T04:38:11.805Z,47.88
2019-01-29T04:40:38.738Z,47.00
2019-01-29T04:43:07.350Z,47.80
2019-01-29T04:45:34.285Z,47.31
2019-01-29T04:48:01.229Z,46.93
2019-01-29T04:50:28.273Z,47.26
2019-01-29T04:52:55.241Z,47.15
2019-01-29T04:55:22.187Z,47.76
2019-01-29T04:57:49.416Z,47.18
2019-01-29T05:00:16.532Z,46.36
2019-01-29T05:02:43.413Z,47.35
2019-01-29T05:05:10.637Z,51.80
2019-01-29T05:07:37.627Z,52.44
2019-01-29T05:10:04.806Z,50.63
2019-01-29T05:12:31.742Z,50.81
2019-01-29T05:14:58.631Z,50.58
2019-01-29T05:17:25.614Z,48.20
2019-01-29T05:19:52.582Z,47.38
2019-01-29T05:22:19.573Z,47.70
2019-01-29T05:24:46.545Z,47.92
2019-01-29T05:27:13.774Z,46.97
2019-01-29T05:29:40.755Z,47.72
2019-01-29T05:32:07.720Z,46.31
2019-01-29T05:34:34.945Z,47.06
2019-01-29T05:37:02.212Z,47.03
2019-01-29T05:39:31.845Z,46.26
2019-01-29T05:41:59.020Z,46.41
2019-01-29T05:44:25.950Z,46.41
2019-01-29T05:46:52.907Z,45.69
2019-01-29T05:49:19.868Z,45.54
2019-01-29T05:51:47.086Z,44.38
2019-01-29T05:54:16.338Z,44.20
2019-01-29T05:56:42.587Z,44.74
2019-01-29T05:59:09.869Z,45.19
2019-01-29T06:01:36.825Z,43.82
2019-01-29T06:04:03.758Z,43.65
2019-01-29T06:06:30.650Z,43.98
2019-01-29T06:08:57.807Z,44.68
2019-01-29T06:11:25.064Z,44.75
2019-01-29T06:13:52.203Z,44.84
2019-01-29T06:16:19.086Z,44.09
2019-01-29T06:18:46.306Z,43.73
2019-01-29T06:21:13.312Z,43.26
2019-01-29T06:23:40.563Z,44.22
2019-01-29T06:26:07.543Z,44.83
2019-01-29T06:28:34.485Z,44.12
2019-01-29T06:31:01.778Z,44.33
2019-01-29T06:33:29.157Z,43.94
2019-01-29T06:35:56.477Z,44.22
2019-01-29T06:38:23.358Z,44.49
2019-01-29T06:40:50.529Z,44.49
2019-01-29T06:43:17.841Z,44.05
2019-01-29T06:45:45.038Z,44.31
2019-01-29T06:48:12.278Z,44.65
2019-01-29T06:50:39.486Z,44.29
2019-01-29T06:53:07.843Z,44.03
2019-01-29T06:55:34.770Z,44.45
2019-01-29T06:58:01.693Z,44.79
2019-01-29T07:00:28.557Z,44.96
2019-01-29T07:02:55.805Z,44.91
2019-01-29T07:05:22.999Z,44.87
2019-01-29T07:07:50.233Z,44.97
2019-01-29T07:10:17.183Z,44.95
2019-01-29T07:12:44.077Z,45.39
2019-01-29T07:15:11.310Z,45.45
2019-01-29T07:17:44.551Z,45.41
2019-01-29T07:20:11.869Z,45.45
2019-01-29T07:22:38.767Z,45.41
2019-01-29T07:25:05.997Z,45.55
2019-01-29T07:27:32.983Z,45.33
2019-01-29T07:30:00.170Z,45.05
2019-01-29T07:32:27.405Z,45.07
2019-01-29T07:34:54.328Z,45.02
2019-01-29T07:37:22.139Z,45.37
2019-01-29T07:39:49.643Z,45.31
2019-01-29T07:42:16.577Z,45.49
2019-01-29T07:44:43.737Z,45.64
2019-01-29T07:47:11.016Z,45.16
2019-01-29T07:49:38.297Z,45.33
2019-01-29T07:52:05.160Z,45.38
2019-01-29T07:54:33.443Z,45.26
2019-01-29T07:57:00.645Z,45.11
2019-01-29T07:59:33.224Z,45.12
2019-01-29T08:01:56.788Z,45.24
2019-01-29T08:04:23.704Z,45.04
2019-01-29T08:06:50.659Z,45.40
2019-01-29T08:09:17.791Z,45.30
2019-01-29T08:11:44.663Z,45.63
2019-01-29T08:14:11.602Z,45.11
2019-01-29T08:16:38.510Z,45.01
2019-01-29T08:19:05.509Z,44.54
2019-01-29T08:21:33.880Z,44.12
2019-01-29T08:24:00.853Z,44.68
2019-01-29T08:26:28.087Z,44.98
2019-01-29T08:28:55.050Z,45.12
2019-01-29T08:31:25.042Z,45.07
2019-01-29T08:33:51.635Z,44.92
2019-01-29T08:36:18.807Z,44.86
2019-01-29T08:38:45.773Z,44.65
2019-01-29T08:41:12.729Z,45.03
2019-01-29T08:43:39.622Z,44.84
2019-01-29T08:46:07.551Z,44.65
2019-01-29T08:48:35.612Z,45.15
2019-01-29T08:51:03.735Z,45.53
2019-01-29T08:53:30.865Z,45.42
2019-01-29T08:55:57.765Z,44.78
2019-01-29T08:58:27.089Z,44.86
2019-01-29T09:00:53.340Z,44.82
2019-01-29T09:03:20.262Z,45.30
2019-01-29T09:05:47.222Z,45.08
2019-01-29T09:08:14.210Z,44.91
2019-01-29T09:10:41.184Z,45.21
2019-01-29T09:13:08.082Z,45.36
2019-01-29T09:15:35.227Z,45.44
2019-01-29T09:18:02.166Z,45.11
2019-01-29T09:20:29.394Z,45.12
2019-01-29T09:22:56.646Z,45.63
2019-01-29T09:25:23.595Z,45.68
2019-01-29T09:27:51.606Z,45.48
2019-01-29T09:30:18.531Z,45.02
2019-01-29T09:32:45.467Z,45.53
2019-01-29T09:35:12.356Z,45.56
2019-01-29T09:37:39.250Z,44.79
2019-01-29T09:40:06.192Z,44.83
2019-01-29T09:42:33.101Z,44.99
2019-01-29T09:44:59.966Z,44.98
2019-01-29T09:47:27.119Z,44.85
2019-01-29T09:49:54.093Z,44.81
2019-01-29T09:52:21.519Z,44.62
2019-01-29T09:54:51.802Z,44.49
2019-01-29T09:57:18.729Z,44.09
2019-01-29T09:59:45.653Z,43.78
2019-01-29T10:02:15.285Z,43.82
2019-01-29T10:04:42.298Z,43.96
2019-01-29T10:07:09.157Z,44.24
2019-01-29T10:09:36.341Z,44.51
2019-01-29T10:12:03.290Z,44.48
2019-01-29T10:14:30.282Z,44.01
2019-01-29T10:17:00.235Z,44.27
2019-01-29T10:19:30.398Z,44.12
2019-01-29T10:21:57.542Z,44.10
2019-01-29T10:24:24.902Z,43.89
2019-01-29T10:26:51.861Z,43.69
2019-01-29T10:29:21.794Z,43.66
2019-01-29T10:31:48.737Z,43.65
2019-01-29T10:34:15.895Z,43.58
2019-01-29T10:36:43.760Z,43.86
2019-01-29T10:39:10.930Z,43.62
2019-01-29T10:41:38.197Z,43.54
2019-01-29T10:44:05.466Z,43.49
2019-01-29T10:46:32.333Z,43.49
2019-01-29T10:48:59.557Z,43.47
2019-01-29T10:51:26.764Z,43.76
2019-01-29T10:53:53.762Z,43.74
2019-01-29T10:56:21.039Z,44.17
2019-01-29T10:58:47.987Z,43.16
2019-01-29T11:01:14.882Z,43.53
2019-01-29T11:03:42.603Z,43.71
2019-01-29T11:06:09.844Z,43.51
2019-01-29T11:08:36.717Z,43.43
2019-01-29T11:11:03.606Z,43.84
2019-01-29T11:13:30.787Z,43.80
2019-01-29T11:15:57.647Z,43.88
2019-01-29T11:18:24.813Z,43.58
2019-01-29T11:20:51.782Z,43.77
2019-01-29T11:23:19.055Z,43.81
2019-01-29T11:25:46.264Z,43.71
2019-01-29T11:28:13.609Z,43.78
2019-01-29T11:30:40.944Z,43.89
2019-01-29T11:33:07.920Z,44.05
2019-01-29T11:35:41.094Z,44.02
2019-01-29T11:38:09.693Z,44.16
2019-01-29T11:40:42.934Z,43.71
2019-01-29T11:43:13.222Z,43.61
2019-01-29T11:45:43.681Z,43.65
2019-01-29T11:48:10.561Z,43.29
2019-01-29T11:50:37.508Z,43.17
2019-01-29T11:53:04.722Z,43.40
2019-01-29T11:55:31.918Z,43.14
2019-01-29T11:57:58.805Z,43.50
2019-01-29T12:00:25.819Z,43.48
2019-01-29T12:02:52.789Z,43.49
2019-01-29T12:05:19.658Z,43.43
2019-01-29T12:07:46.560Z,43.18
2019-01-29T12:10:13.832Z,43.00
2019-01-29T12:12:40.804Z,43.10
2019-01-29T12:15:07.718Z,43.04
2019-01-29T12:17:34.606Z,42.83
2019-01-29T12:20:01.501Z,42.81
2019-01-29T12:22:28.488Z,42.31
2019-01-29T12:24:55.700Z,43.17
2019-01-29T12:27:22.619Z,42.95
2019-01-29T12:29:49.540Z,43.27
2019-01-29T12:32:16.767Z,42.70
2019-01-29T12:34:43.697Z,42.33
2019-01-29T12:37:10.696Z,43.04
2019-01-29T12:39:37.659Z,43.10
2019-01-29T12:42:04.671Z,43.24
2019-01-29T12:44:32.680Z,43.29
2019-01-29T12:46:59.854Z,43.53
2019-01-29T12:49:27.113Z,43.42
2019-01-29T12:51:54.346Z,43.13
2019-01-29T12:54:21.307Z,43.35
2019-01-29T12:56:48.809Z,43.65
2019-01-29T12:59:15.703Z,43.43
2019-01-29T13:01:42.618Z,43.34
2019-01-29T13:04:12.461Z,43.28
2019-01-29T13:06:39.438Z,43.35
2019-01-29T13:09:06.374Z,43.33
2019-01-29T13:11:34.483Z,43.35
2019-01-29T13:14:01.659Z,43.50
2019-01-29T13:16:28.901Z,43.31
2019-01-29T13:18:56.022Z,43.31
2019-01-29T13:21:22.950Z,42.52
2019-01-29T13:23:50.253Z,42.88
2019-01-29T13:26:18.882Z,42.69
2019-01-29T13:28:46.218Z,43.02
2019-01-29T13:31:15.057Z,42.79
2019-01-29T13:33:42.215Z,42.67
2019-01-29T13:36:09.174Z,42.81
2019-01-29T13:38:36.332Z,42.81
2019-01-29T13:41:03.241Z,42.58
2019-01-29T13:43:30.225Z,42.39
2019-01-29T13:45:57.493Z,42.88
2019-01-29T13:48:25.702Z,42.70
2019-01-29T13:50:52.884Z,42.66
2019-01-29T13:53:20.083Z,42.63
2019-01-29T13:55:47.404Z,42.33
2019-01-29T13:58:14.766Z,42.31
2019-01-29T14:00:41.629Z,42.47
2019-01-29T14:03:08.537Z,42.48
2019-01-29T14:05:35.530Z,42.52
2019-01-29T14:08:02.526Z,42.41
2019-01-29T14:10:29.676Z,41.87
2019-01-29T14:12:56.688Z,42.21
2019-01-29T14:15:23.593Z,42.14
2019-01-29T14:17:56.540Z,42.36
2019-01-29T14:20:23.535Z,42.67
2019-01-29T14:22:50.801Z,42.63
2019-01-29T14:25:19.886Z,42.32
2019-01-29T14:27:46.863Z,42.53
2019-01-29T14:30:14.583Z,42.23
2019-01-29T14:32:42.025Z,42.14
2019-01-29T14:35:09.444Z,42.43
2019-01-29T14:37:36.507Z,42.95
2019-01-29T14:40:03.760Z,42.49
2019-01-29T14:42:30.979Z,42.44
2019-01-29T14:44:59.809Z,42.38
2019-01-29T14:47:28.922Z,42.30
2019-01-29T14:49:55.802Z,42.70
2019-01-29T14:52:22.824Z,42.79
2019-01-29T14:54:52.819Z,43.01
2019-01-29T14:57:20.049Z,42.75
2019-01-29T14:59:47.046Z,42.92
2019-01-29T15:02:14.019Z,42.79
2019-01-29T15:04:42.534Z,42.88
2019-01-29T15:07:10.489Z,42.87
2019-01-29T15:09:37.536Z,42.92
2019-01-29T15:12:04.783Z,42.71
2019-01-29T15:14:32.100Z,42.78
2019-01-29T15:16:59.639Z,42.54
2019-01-29T15:19:26.906Z,42.58
2019-01-29T15:21:53.950Z,42.88
2019-01-29T15:24:21.226Z,42.86
2019-01-29T15:26:48.126Z,42.76
2019-01-29T15:29:15.074Z,42.94
2019-01-29T15:31:41.949Z,42.86
2019-01-29T15:34:08.980Z,42.94
2019-01-29T15:36:36.187Z,42.90
2019-01-29T15:39:04.305Z,43.00
2019-01-29T15:41:32.825Z,42.83
2019-01-29T15:43:59.861Z,42.91
2019-01-29T15:46:32.646Z,43.03
2019-01-29T15:49:02.667Z,43.07
2019-01-29T15:51:29.626Z,43.14
2019-01-29T15:53:56.835Z,43.14
2019-01-29T15:56:26.378Z,43.22
2019-01-29T15:58:53.642Z,43.03
2019-01-29T16:01:24.951Z,42.98
2019-01-29T16:03:53.578Z,43.16
2019-01-29T16:06:20.590Z,43.28
2019-01-29T16:08:48.107Z,43.45
2019-01-29T16:11:15.122Z,43.37
2019-01-29T16:13:42.431Z,43.17
2019-01-29T16:16:09.794Z,43.29
2019-01-29T16:18:36.996Z,43.34
2019-01-29T16:21:03.908Z,43.11
2019-01-29T16:23:30.853Z,43.45
2019-01-29T16:25:57.778Z,43.08
2019-01-29T16:28:24.749Z,43.07
2019-01-29T16:30:51.635Z,43.54
2019-01-29T16:33:18.630Z,43.15
2019-01-29T16:35:45.572Z,43.30
2019-01-29T16:38:15.607Z,43.23
2019-01-29T16:40:44.985Z,43.38
2019-01-29T16:43:16.901Z,43.26
2019-01-29T16:45:45.502Z,43.39
2019-01-29T16:51:10.355Z,43.83
2019-01-29T16:59:26.189Z,44.50
2019-01-29T17:01:57.507Z,44.82
2019-01-29T17:04:24.807Z,46.40
2019-01-29T17:06:58.810Z,47.17
2019-01-29T17:09:24.154Z,47.27
2019-01-29T17:11:56.915Z,46.76
2019-01-29T17:14:25.968Z,46.67
2019-01-29T17:19:35.717Z,47.71
2019-01-29T17:22:02.485Z,45.41
2019-01-29T17:24:30.606Z,46.20
2019-01-29T17:26:58.078Z,46.56
2019-01-29T17:29:26.793Z,46.10
2019-01-29T17:31:54.061Z,46.96
2019-01-29T17:34:20.983Z,47.50
2019-01-29T17:36:48.038Z,47.30
2019-01-29T17:39:33.141Z,47.64
2019-01-29T17:42:03.584Z,47.43
2019-01-29T17:44:34.866Z,47.69
2019-01-29T17:47:01.893Z,47.52
2019-01-29T17:49:31.925Z,47.92
2019-01-29T17:51:59.854Z,47.88
2019-01-29T17:54:27.086Z,47.38
2019-01-29T17:56:54.597Z,47.34
2019-01-29T17:59:24.779Z,47.49
2019-01-29T18:01:54.932Z,47.24
2019-01-29T18:04:22.282Z,47.35
2019-01-29T18:06:54.833Z,47.80
2019-01-29T18:09:22.625Z,47.80
2019-01-29T18:11:56.991Z,48.37
2019-01-29T18:14:24.317Z,49.23
2019-01-29T18:17:00.384Z,49.21
2019-01-29T18:19:28.954Z,49.53
2019-01-29T18:21:57.199Z,49.36
2019-01-29T18:24:24.459Z,48.98
2019-01-29T18:26:55.533Z,48.91
2019-01-29T18:32:14.646Z,49.44
2019-01-29T18:34:43.465Z,50.02
2019-01-29T18:37:18.419Z,49.57
2019-01-29T18:39:52.592Z,49.79
2019-01-29T18:42:19.964Z,49.37
2019-01-29T18:44:47.175Z,49.29
2019-01-29T18:47:14.393Z,49.07
2019-01-29T18:49:51.352Z,48.92
2019-01-29T18:52:16.481Z,48.96
2019-01-29T18:54:43.800Z,49.03
2019-01-29T18:57:10.848Z,48.78
2019-01-29T18:59:37.804Z,48.71
2019-01-29T19:02:04.821Z,49.23
2019-01-29T19:04:33.882Z,49.88
2019-01-29T19:07:00.913Z,48.96
2019-01-29T19:09:31.600Z,48.83
2019-01-29T19:11:59.399Z,48.90
2019-01-29T19:14:33.500Z,49.20
2019-01-29T19:17:10.119Z,48.83
2019-01-29T19:19:50.831Z,49.69
2019-01-29T19:22:14.456Z,49.27
2019-01-29T19:24:41.496Z,48.30
2019-01-29T19:27:08.948Z,47.55
2019-01-29T19:29:36.047Z,47.57
2019-01-29T19:32:03.348Z,47.30
2019-01-29T19:34:30.441Z,47.13
2019-01-29T19:36:57.680Z,47.51
2019-01-29T19:39:25.034Z,48.01
2019-01-29T19:41:52.032Z,49.10
2019-01-29T19:44:20.696Z,49.25
2019-01-29T19:46:52.430Z,48.69
2019-01-29T19:49:19.511Z,48.02
2019-01-29T19:51:49.752Z,47.19
2019-01-29T19:54:19.279Z,47.23
2019-01-29T19:56:46.725Z,47.40
2019-01-29T19:59:13.781Z,48.52
2019-01-29T20:01:40.985Z,49.16
2019-01-29T20:04:08.127Z,48.74
2019-01-29T20:06:37.802Z,49.49
2019-01-29T20:09:04.835Z,49.62
2019-01-29T20:11:32.350Z,49.07
2019-01-29T20:13:59.262Z,49.10
2019-01-29T20:16:34.061Z,48.22
2019-01-29T20:19:04.353Z,47.61
2019-01-29T20:21:31.686Z,46.53
2019-01-29T20:24:00.489Z,46.33
2019-01-29T20:26:27.796Z,46.56
2019-01-29T20:29:00.615Z,47.35
2019-01-29T20:31:27.922Z,48.43
2019-01-29T20:33:57.510Z,47.90
2019-01-29T20:36:28.050Z,47.97
2019-01-29T20:39:04.608Z,48.36
2019-01-29T20:44:23.562Z,49.22
2019-01-29T20:46:50.930Z,49.93
2019-01-29T20:49:19.064Z,50.15
2019-01-29T20:51:46.367Z,49.92
2019-01-29T20:54:13.334Z,49.50
2019-01-29T20:56:40.406Z,49.97
2019-01-29T20:59:07.558Z,49.84
2019-01-29T21:01:34.595Z,49.48
2019-01-29T21:04:01.562Z,50.04
2019-01-29T21:06:29.533Z,48.63
2019-01-29T21:08:56.732Z,48.24
2019-01-29T21:11:26.266Z,47.34
2019-01-29T21:13:53.464Z,47.26
2019-01-29T21:16:21.645Z,47.19
2019-01-29T21:18:48.707Z,47.32
2019-01-29T21:21:16.778Z,47.37
2019-01-29T21:23:45.303Z,47.60
2019-01-29T21:26:12.311Z,48.23
2019-01-29T21:28:44.527Z,48.17
2019-01-29T21:31:11.605Z,47.67
2019-01-29T21:33:38.591Z,46.59
2019-01-29T21:36:08.586Z,46.75
2019-01-29T21:38:38.266Z,45.21
2019-01-29T21:41:05.227Z,44.94
2019-01-29T21:43:34.024Z,45.55
2019-01-29T21:48:43.318Z,44.58
2019-01-29T21:53:44.683Z,44.85
2019-01-29T21:56:14.393Z,45.23
2019-01-29T21:58:41.864Z,45.57
2019-01-29T22:01:08.831Z,46.07
2019-01-29T22:03:38.452Z,46.65
2019-01-29T22:06:05.848Z,46.97
2019-01-29T22:08:32.864Z,47.68
2019-01-29T22:10:59.974Z,48.46
2019-01-29T22:13:29.057Z,48.82
2019-01-29T22:15:56.086Z,49.60
2019-01-29T22:18:23.135Z,48.95
2019-01-29T22:20:50.452Z,50.05
2019-01-29T22:23:18.530Z,50.13
2019-01-29T22:25:47.795Z,49.82
2019-01-29T22:28:17.476Z,49.73
2019-01-29T22:30:44.783Z,49.63
2019-01-29T22:33:12.055Z,50.64
2019-01-29T22:35:39.116Z,50.28
2019-01-29T22:38:06.123Z,50.13
2019-01-29T22:40:35.119Z,50.16
2019-01-29T22:43:02.562Z,49.54
2019-01-29T22:45:35.622Z,49.18
2019-01-29T22:48:04.487Z,48.66
2019-01-29T22:50:31.805Z,48.45
2019-01-29T22:53:01.622Z,48.14
2019-01-29T22:55:28.971Z,49.69
2019-01-29T22:57:57.665Z,49.68
2019-01-29T23:00:27.723Z,50.78
2019-01-29T23:02:56.758Z,50.70
2019-01-29T23:05:25.822Z,50.21
2019-01-29T23:07:56.071Z,50.30
2019-01-29T23:10:23.161Z,50.74
2019-01-29T23:12:50.209Z,49.31
2019-01-29T23:15:17.697Z,50.20
2019-01-29T23:17:46.294Z,49.45
2019-01-29T23:20:17.113Z,49.23
2019-01-29T23:22:45.155Z,49.03
2019-01-29T23:25:12.614Z,49.61
2019-01-29T23:27:39.776Z,49.22
2019-01-29T23:30:10.931Z,49.20
2019-01-29T23:32:37.897Z,48.87
2019-01-29T23:35:06.581Z,49.45
2019-01-29T23:37:33.757Z,49.27
2019-01-29T23:40:02.155Z,49.41
2019-01-29T23:42:30.155Z,50.38
2019-01-29T23:45:02.008Z,49.12
2019-01-29T23:47:29.171Z,49.16
2019-01-29T23:49:56.498Z,48.33
2019-01-29T23:52:25.184Z,48.26
2019-01-29T23:54:52.215Z,49.03
2019-01-29T23:57:19.554Z,49.34
2019-01-29T23:59:53.524Z,49.56
